WetterOnline ( https://www.wetteronline.de )

Wetter aktuell Luckenwalde

Aktuelles Wetter: Baruth (55m)

6-stündlich | Neueste Meldungen
Ortszeit Temperatur Wetter
Mo, 24.02. 19:00 5.0° C bedeckt
Mo, 24.02. 13:00 7.1° C bedeckt
Mo, 24.02. 7:00 4.3° C bewölkt
Mo, 24.02. 1:00 3.6° C bewölkt
So, 23.02. 19:00 8.8° C bewölkt
So, 23.02. 13:00 6.9° C leichter Regen
So, 23.02. 7:00 6.8° C Sprühregen
So, 23.02. 1:00 6.5° C bewölkt
Ortszeit Temperatur Wetter
Di, 25.02. 0:30 8.8° C Sprühregen
Di, 25.02. 0:20 8.8° C Sprühregen
Di, 25.02. 0:10 8.6° C Sprühregen
Di, 25.02. 0:00 8.4° C leichter Regen
Mo, 24.02. 23:50 8.4° C leichter Regen
Mo, 24.02. 23:40 8.3° C Sprühregen
Mo, 24.02. 23:30 7.8° C leichter Regen
Mo, 24.02. 23:00 7.3° C leichter Regen
Ortszeit Relative Feuchte Sichtweite
Mo, 24.02. 19:00 79% 50 km
Mo, 24.02. 13:00 70% 30 km
Mo, 24.02. 7:00 80% 30 km
Mo, 24.02. 1:00 89% 45 km
So, 23.02. 19:00 92% >70 km
So, 23.02. 13:00 96% 13 km
So, 23.02. 7:00 78% 50 km
So, 23.02. 1:00 92% 55 km
Ortszeit Relative Feuchte Sichtweite
Di, 25.02. 0:30 93% 30 km
Di, 25.02. 0:20 93% -
Di, 25.02. 0:10 93% -
Di, 25.02. 0:00 93% 14 km
Mo, 24.02. 23:50 93% -
Mo, 24.02. 23:40 93% -
Mo, 24.02. 23:30 95% 21 km
Mo, 24.02. 23:00 94% 18 km
Ortszeit Niederschlagsmenge Niederschlagsart
Mo, 24.02. 19:00 0.3 l/m2 in 12 Std. Regen
Mo, 24.02. 13:00 0.3 l/m2 in 6 Std. Regen
Mo, 24.02. 7:00 1 l/m2 in 12 Std. -
Mo, 24.02. 1:00 1 l/m2 in 6 Std. Regen
So, 23.02. 19:00 13 l/m2 in 12 Std. Regenschauer
So, 23.02. 13:00 3 l/m2 in 6 Std. Regen
So, 23.02. 7:00 3 l/m2 in 12 Std. Regen
So, 23.02. 1:00 3 l/m2 in 6 Std. Regen
Ortszeit Niederschlagsmenge Niederschlagsart
Di, 25.02. 0:30 0.1 l/m2 in 1 Std. -
Di, 25.02. 0:20 keine Meldung -
Di, 25.02. 0:10 keine Meldung -
Di, 25.02. 0:00 0.4 l/m2 in 1 Std. Regen
Mo, 24.02. 23:50 keine Meldung -
Mo, 24.02. 23:40 keine Meldung -
Mo, 24.02. 23:30 0.3 l/m2 in 1 Std. -
Mo, 24.02. 23:00 0.8 l/m2 in 1 Std. Regen
Ortszeit Stärke Spitze Richtung
km/h Bft. km/h Grad Sektor
Mo, 24.02. 19:00 19 3 43 170° S
Mo, 24.02. 13:00 20 4 43 260° W
Mo, 24.02. 7:00 29 5 43 270° W
Mo, 24.02. 1:00 20 4 69 290° W
So, 23.02. 19:00 29 5 86 290° W
So, 23.02. 13:00 9 2 41 170° S
So, 23.02. 7:00 28 4 52 250° W
So, 23.02. 1:00 18 3 61 250° W
Ortszeit Stärke Spitze Richtung
km/h Bft. km/h Grad Sektor
Di, 25.02. 0:30 26 4 43 240° SW
Di, 25.02. 0:20 26 4 - 240° SW
Di, 25.02. 0:10 25 4 - 240° SW
Di, 25.02. 0:00 28 4 46 230° SW
Mo, 24.02. 23:50 28 4 - 230° SW
Mo, 24.02. 23:40 26 4 - 230° SW
Mo, 24.02. 23:30 22 4 44 240° SW
Mo, 24.02. 23:00 26 4 44 220° SW
Ortszeit Untergrenze Bedeckung Gattung
total tief tief mittel hoch
Mo, 24.02. 19:00 1020 m 8/8 8/8 - - -
Mo, 24.02. 13:00 660 m 8/8 8/8 - - -
Mo, 24.02. 7:00 660 m 7/8 7/8 - - -
Mo, 24.02. 1:00 240 m 7/8 7/8 - - -
So, 23.02. 19:00 510 m 8/8 7/8 - - -
So, 23.02. 13:00 360 m 8/8 8/8 - - -
So, 23.02. 7:00 1500 m 7/8 7/8 - - -
So, 23.02. 1:00 1500 m 7/8 7/8 - - -
Ortszeit Bedeckungsgrad in Achtel und Wolkenuntergrenze
Di, 25.02. 0:30 3(900m) 7(1500m) 8(1800m)
Di, 25.02. 0:20 3(900m) 7(1500m) 8(1800m)
Di, 25.02. 0:10 3(870m) 7(1230m) 7(1800m)
Di, 25.02. 0:00 2(480m) 7(1290m) 8(1500m)
Mo, 24.02. 23:50 2(480m) 7(1290m) 8(1500m)
Mo, 24.02. 23:40 1(60m) 7(1320m) 8(1500m)
Mo, 24.02. 23:30 2(60m) 5(600m) 8(930m)
Mo, 24.02. 23:00 1(30m) 6(990m) 7(1290m)
Ortszeit Luftdruck NN (hPa) Tendenz (hPa in 3 Std.)
Mo, 24.02. 19:00 1008 - 5,7
Mo, 24.02. 13:00 1018 - 2,4
Mo, 24.02. 7:00 1020 + 1,8
Mo, 24.02. 1:00 1015 + 5,3
So, 23.02. 19:00 1002 + 2,1
So, 23.02. 13:00 1006 - 6,7
So, 23.02. 7:00 1015 - 0,9
So, 23.02. 1:00 1016 - 0,9
Ortszeit Luftdruck NN (hPa) Tendenz (hPa in 3 Std.)
Di, 25.02. 0:30 1001 - 2,8
Di, 25.02. 0:20 1001 keine Meldung
Di, 25.02. 0:10 1001 keine Meldung
Di, 25.02. 0:00 1001 - 3,2
Mo, 24.02. 23:50 1001 keine Meldung
Mo, 24.02. 23:40 1001 keine Meldung
Mo, 24.02. 23:30 1002 - 3,8
Mo, 24.02. 23:00 1002 - 4,3
Ortszeit Schneehöhe (cm)
Mo, 24.02. 19:00 0
Mo, 24.02. 13:00 0
Mo, 24.02. 7:00 0
Mo, 24.02. 1:00 0
So, 23.02. 19:00 0
So, 23.02. 13:00 0
So, 23.02. 7:00 0
So, 23.02. 1:00 0
Ortszeit Schneehöhe (cm)
Di, 25.02. 0:30 0
Di, 25.02. 0:20 0
Di, 25.02. 0:10 0
Di, 25.02. 0:00 0
Mo, 24.02. 23:50 0
Mo, 24.02. 23:40 0
Mo, 24.02. 23:30 0
Mo, 24.02. 23:00 0
Link zu dieser Seite / Seite empfehlen

Das Wetter in ...